sensor_id;sensor_type;location;lat;lon;timestamp;pressure;altitude;pressure_sealevel;temperature;humidity
11413;BME280;5762;43.256;26.960;2023-02-28T00:00:15;100619.42;;;5.47;100.00
11413;BME280;5762;43.256;26.960;2023-02-28T00:02:43;100621.44;;;5.57;100.00
11413;BME280;5762;43.256;26.960;2023-02-28T00:05:14;100623.06;;;5.58;100.00
11413;BME280;5762;43.256;26.960;2023-02-28T00:07:42;100624.41;;;5.58;100.00
11413;BME280;5762;43.256;26.960;2023-02-28T00:10:11;100626.75;;;5.52;100.00
11413;BME280;5762;43.256;26.960;2023-02-28T00:12:40;100622.05;;;5.45;100.00
11413;BME280;5762;43.256;26.960;2023-02-28T00:15:09;100619.52;;;5.38;100.00
11413;BME280;5762;43.256;26.960;2023-02-28T00:17:38;100630.50;;;5.36;100.00
11413;BME280;5762;43.256;26.960;2023-02-28T00:20:08;100640.08;;;5.47;100.00
11413;BME280;5762;43.256;26.960;2023-02-28T00:22:39;100639.64;;;5.52;100.00
11413;BME280;5762;43.256;26.960;2023-02-28T00:25:08;100639.75;;;5.43;100.00
11413;BME280;5762;43.256;26.960;2023-02-28T00:27:37;100636.34;;;5.48;100.00
11413;BME280;5762;43.256;26.960;2023-02-28T00:30:08;100636.43;;;5.53;100.00
11413;BME280;5762;43.256;26.960;2023-02-28T00:32:36;100657.05;;;5.50;100.00
11413;BME280;5762;43.256;26.960;2023-02-28T00:35:05;100667.31;;;5.38;100.00
11413;BME280;5762;43.256;26.960;2023-02-28T00:37:34;100669.03;;;5.45;100.00
11413;BME280;5762;43.256;26.960;2023-02-28T00:40:03;100651.20;;;5.38;100.00
11413;BME280;5762;43.256;26.960;2023-02-28T00:42:33;100658.59;;;5.46;100.00
11413;BME280;5762;43.256;26.960;2023-02-28T00:45:01;100666.40;;;5.47;100.00
11413;BME280;5762;43.256;26.960;2023-02-28T00:47:30;100661.31;;;5.48;100.00
11413;BME280;5762;43.256;26.960;2023-02-28T00:49:59;100657.72;;;5.43;100.00
11413;BME280;5762;43.256;26.960;2023-02-28T00:52:27;100652.55;;;5.38;100.00
11413;BME280;5762;43.256;26.960;2023-02-28T00:54:56;100653.03;;;5.35;100.00
11413;BME280;5762;43.256;26.960;2023-02-28T00:57:25;100652.41;;;5.31;100.00
11413;BME280;5762;43.256;26.960;2023-02-28T00:59:54;100661.08;;;5.35;100.00
11413;BME280;5762;43.256;26.960;2023-02-28T01:02:23;100662.61;;;5.46;100.00
11413;BME280;5762;43.256;26.960;2023-02-28T01:04:51;100662.90;;;5.47;100.00
11413;BME280;5762;43.256;26.960;2023-02-28T01:07:20;100670.23;;;5.51;100.00
11413;BME280;5762;43.256;26.960;2023-02-28T01:09:49;100673.92;;;5.48;100.00
11413;BME280;5762;43.256;26.960;2023-02-28T01:12:18;100679.94;;;5.55;100.00
11413;BME280;5762;43.256;26.960;2023-02-28T01:14:47;100653.08;;;5.55;100.00
11413;BME280;5762;43.256;26.960;2023-02-28T01:17:16;100607.25;;;5.42;100.00
11413;BME280;5762;43.256;26.960;2023-02-28T01:19:45;100604.58;;;5.28;100.00
11413;BME280;5762;43.256;26.960;2023-02-28T01:22:14;100634.77;;;5.35;100.00
11413;BME280;5762;43.256;26.960;2023-02-28T01:24:43;100639.36;;;5.37;100.00
11413;BME280;5762;43.256;26.960;2023-02-28T01:27:11;100626.14;;;5.33;100.00
11413;BME280;5762;43.256;26.960;2023-02-28T01:29:40;100641.48;;;5.21;100.00
11413;BME280;5762;43.256;26.960;2023-02-28T01:32:09;100655.70;;;5.21;100.00
11413;BME280;5762;43.256;26.960;2023-02-28T01:34:37;100662.64;;;5.17;100.00
11413;BME280;5762;43.256;26.960;2023-02-28T01:37:06;100672.09;;;5.22;100.00
11413;BME280;5762;43.256;26.960;2023-02-28T01:39:35;100663.22;;;5.19;100.00
11413;BME280;5762;43.256;26.960;2023-02-28T01:42:04;100657.56;;;5.18;100.00
11413;BME280;5762;43.256;26.960;2023-02-28T01:47:20;100665.09;;;5.19;100.00
11413;BME280;5762;43.256;26.960;2023-02-28T01:49:49;100674.20;;;5.20;100.00
11413;BME280;5762;43.256;26.960;2023-02-28T01:52:19;100673.44;;;5.22;100.00
11413;BME280;5762;43.256;26.960;2023-02-28T01:54:50;100680.15;;;5.22;100.00
11413;BME280;5762;43.256;26.960;2023-02-28T01:57:18;100675.31;;;5.22;100.00
11413;BME280;5762;43.256;26.960;2023-02-28T01:59:51;100672.67;;;5.24;100.00
11413;BME280;5762;43.256;26.960;2023-02-28T02:02:20;100666.11;;;5.32;100.00
11413;BME280;5762;43.256;26.960;2023-02-28T02:04:54;100665.61;;;5.18;100.00
11413;BME280;5762;43.256;26.960;2023-02-28T02:07:19;100671.81;;;5.21;100.00
11413;BME280;5762;43.256;26.960;2023-02-28T02:09:49;100676.51;;;5.28;100.00
11413;BME280;5762;43.256;26.960;2023-02-28T02:12:29;100656.95;;;5.30;100.00
11413;BME280;5762;43.256;26.960;2023-02-28T02:14:59;100644.67;;;5.18;100.00
11413;BME280;5762;43.256;26.960;2023-02-28T02:17:36;100657.94;;;5.10;100.00
11413;BME280;5762;43.256;26.960;2023-02-28T02:28:09;100688.70;;;5.19;100.00
11413;BME280;5762;43.256;26.960;2023-02-28T02:30:49;100676.05;;;5.17;100.00
11413;BME280;5762;43.256;26.960;2023-02-28T02:36:06;100675.72;;;5.14;100.00
11413;BME280;5762;43.256;26.960;2023-02-28T02:38:39;100681.16;;;5.04;100.00
11413;BME280;5762;43.256;26.960;2023-02-28T02:41:14;100680.92;;;5.06;100.00
11413;BME280;5762;43.256;26.960;2023-02-28T02:46:20;100677.52;;;5.25;100.00
11413;BME280;5762;43.256;26.960;2023-02-28T02:48:44;100679.48;;;5.29;100.00
11413;BME280;5762;43.256;26.960;2023-02-28T02:51:14;100671.14;;;5.28;100.00
11413;BME280;5762;43.256;26.960;2023-02-28T02:53:58;100675.64;;;5.25;100.00
11413;BME280;5762;43.256;26.960;2023-02-28T02:56:23;100681.35;;;5.29;100.00
11413;BME280;5762;43.256;26.960;2023-02-28T02:58:52;100682.23;;;5.18;100.00
11413;BME280;5762;43.256;26.960;2023-02-28T03:01:22;100685.52;;;5.22;100.00
11413;BME280;5762;43.256;26.960;2023-02-28T03:06:29;100669.08;;;5.33;100.00
11413;BME280;5762;43.256;26.960;2023-02-28T03:08:57;100665.83;;;5.31;100.00
11413;BME280;5762;43.256;26.960;2023-02-28T03:11:26;100674.49;;;5.21;100.00
11413;BME280;5762;43.256;26.960;2023-02-28T03:19:34;100693.90;;;4.97;100.00
11413;BME280;5762;43.256;26.960;2023-02-28T03:27:30;100688.21;;;5.08;100.00
11413;BME280;5762;43.256;26.960;2023-02-28T03:30:00;100693.30;;;5.07;100.00
11413;BME280;5762;43.256;26.960;2023-02-28T03:32:29;100701.63;;;5.08;100.00
11413;BME280;5762;43.256;26.960;2023-02-28T03:35:00;100702.76;;;4.98;100.00
11413;BME280;5762;43.256;26.960;2023-02-28T03:37:27;100697.52;;;4.91;100.00
11413;BME280;5762;43.256;26.960;2023-02-28T03:40:01;100690.22;;;5.01;100.00
11413;BME280;5762;43.256;26.960;2023-02-28T03:42:31;100697.79;;;5.04;100.00
11413;BME280;5762;43.256;26.960;2023-02-28T03:45:00;100701.34;;;5.07;100.00
11413;BME280;5762;43.256;26.960;2023-02-28T03:47:35;100695.97;;;5.07;100.00
11413;BME280;5762;43.256;26.960;2023-02-28T03:50:06;100690.03;;;5.05;100.00
11413;BME280;5762;43.256;26.960;2023-02-28T03:52:31;100699.42;;;5.05;100.00
11413;BME280;5762;43.256;26.960;2023-02-28T03:55:01;100712.89;;;5.08;100.00
11413;BME280;5762;43.256;26.960;2023-02-28T03:57:35;100716.62;;;5.07;100.00
11413;BME280;5762;43.256;26.960;2023-02-28T04:00:06;100722.04;;;5.09;100.00
11413;BME280;5762;43.256;26.960;2023-02-28T04:02:35;100726.94;;;5.12;100.00
11413;BME280;5762;43.256;26.960;2023-02-28T04:05:04;100728.33;;;5.15;100.00
11413;BME280;5762;43.256;26.960;2023-02-28T04:07:34;100730.61;;;5.09;100.00
11413;BME280;5762;43.256;26.960;2023-02-28T04:10:03;100733.53;;;5.07;100.00
11413;BME280;5762;43.256;26.960;2023-02-28T04:12:32;100740.98;;;5.17;100.00
11413;BME280;5762;43.256;26.960;2023-02-28T04:15:01;100732.61;;;5.01;100.00
11413;BME280;5762;43.256;26.960;2023-02-28T04:17:30;100728.93;;;5.05;100.00
11413;BME280;5762;43.256;26.960;2023-02-28T04:19:58;100730.56;;;5.06;100.00
11413;BME280;5762;43.256;26.960;2023-02-28T04:22:27;100733.48;;;5.04;100.00
11413;BME280;5762;43.256;26.960;2023-02-28T04:24:56;100725.85;;;4.99;100.00
11413;BME280;5762;43.256;26.960;2023-02-28T04:27:25;100723.00;;;4.91;100.00
11413;BME280;5762;43.256;26.960;2023-02-28T04:29:53;100716.83;;;4.91;100.00
11413;BME280;5762;43.256;26.960;2023-02-28T04:32:22;100722.95;;;4.89;100.00
11413;BME280;5762;43.256;26.960;2023-02-28T04:34:51;100724.80;;;4.74;100.00
11413;BME280;5762;43.256;26.960;2023-02-28T04:37:19;100722.59;;;4.71;100.00
11413;BME280;5762;43.256;26.960;2023-02-28T04:39:47;100727.54;;;4.77;100.00
11413;BME280;5762;43.256;26.960;2023-02-28T04:42:16;100732.38;;;4.65;100.00
11413;BME280;5762;43.256;26.960;2023-02-28T04:44:45;100734.36;;;4.58;100.00
11413;BME280;5762;43.256;26.960;2023-02-28T04:47:14;100741.13;;;4.61;100.00
11413;BME280;5762;43.256;26.960;2023-02-28T04:49:43;100742.88;;;4.55;100.00
11413;BME280;5762;43.256;26.960;2023-02-28T04:52:12;100751.35;;;4.50;100.00
11413;BME280;5762;43.256;26.960;2023-02-28T04:54:41;100749.95;;;4.47;100.00
11413;BME280;5762;43.256;26.960;2023-02-28T04:57:10;100756.97;;;4.51;100.00
11413;BME280;5762;43.256;26.960;2023-02-28T04:59:38;100754.84;;;4.50;100.00
11413;BME280;5762;43.256;26.960;2023-02-28T05:02:06;100754.06;;;4.52;100.00
11413;BME280;5762;43.256;26.960;2023-02-28T05:04:35;100755.98;;;4.54;100.00
11413;BME280;5762;43.256;26.960;2023-02-28T05:07:03;100751.00;;;4.46;100.00
11413;BME280;5762;43.256;26.960;2023-02-28T05:09:32;100757.05;;;4.42;100.00
11413;BME280;5762;43.256;26.960;2023-02-28T05:12:01;100755.25;;;4.45;100.00
11413;BME280;5762;43.256;26.960;2023-02-28T05:14:30;100755.25;;;4.45;100.00
11413;BME280;5762;43.256;26.960;2023-02-28T05:16:59;100768.42;;;4.46;100.00
11413;BME280;5762;43.256;26.960;2023-02-28T05:19:28;100771.39;;;4.47;100.00
11413;BME280;5762;43.256;26.960;2023-02-28T05:21:57;100769.53;;;4.48;100.00
11413;BME280;5762;43.256;26.960;2023-02-28T05:24:25;100780.31;;;4.50;100.00
11413;BME280;5762;43.256;26.960;2023-02-28T05:26:54;100788.81;;;4.47;100.00
11413;BME280;5762;43.256;26.960;2023-02-28T05:29:23;100794.56;;;4.53;100.00
11413;BME280;5762;43.256;26.960;2023-02-28T05:31:53;100798.01;;;4.40;100.00
11413;BME280;5762;43.256;26.960;2023-02-28T05:34:21;100795.75;;;4.46;100.00
11413;BME280;5762;43.256;26.960;2023-02-28T05:36:50;100800.59;;;4.46;100.00
11413;BME280;5762;43.256;26.960;2023-02-28T05:39:19;100797.84;;;4.44;100.00
11413;BME280;5762;43.256;26.960;2023-02-28T05:41:48;100804.84;;;4.45;100.00
11413;BME280;5762;43.256;26.960;2023-02-28T05:44:17;100807.00;;;4.45;100.00
11413;BME280;5762;43.256;26.960;2023-02-28T05:46:46;100803.95;;;4.53;100.00
11413;BME280;5762;43.256;26.960;2023-02-28T05:49:15;100808.78;;;4.54;100.00
11413;BME280;5762;43.256;26.960;2023-02-28T05:51:44;100811.88;;;4.60;100.00
11413;BME280;5762;43.256;26.960;2023-02-28T05:54:13;100820.28;;;4.63;100.00
11413;BME280;5762;43.256;26.960;2023-02-28T05:56:42;100823.59;;;4.56;100.00
11413;BME280;5762;43.256;26.960;2023-02-28T05:59:11;100824.07;;;4.65;100.00
11413;BME280;5762;43.256;26.960;2023-02-28T06:01:41;100819.06;;;4.68;100.00
11413;BME280;5762;43.256;26.960;2023-02-28T06:04:10;100814.45;;;4.66;100.00
11413;BME280;5762;43.256;26.960;2023-02-28T06:06:40;100821.68;;;4.66;100.00
11413;BME280;5762;43.256;26.960;2023-02-28T06:09:08;100816.09;;;4.67;100.00
11413;BME280;5762;43.256;26.960;2023-02-28T06:11:37;100827.23;;;4.74;100.00
11413;BME280;5762;43.256;26.960;2023-02-28T06:14:06;100824.42;;;4.68;100.00
11413;BME280;5762;43.256;26.960;2023-02-28T06:16:36;100827.58;;;4.77;100.00
11413;BME280;5762;43.256;26.960;2023-02-28T06:19:04;100818.25;;;4.80;100.00
11413;BME280;5762;43.256;26.960;2023-02-28T06:21:32;100818.31;;;4.82;100.00
11413;BME280;5762;43.256;26.960;2023-02-28T06:24:01;100823.39;;;4.81;100.00
11413;BME280;5762;43.256;26.960;2023-02-28T06:26:30;100819.74;;;4.87;100.00
11413;BME280;5762;43.256;26.960;2023-02-28T06:28:59;100814.98;;;4.78;100.00
11413;BME280;5762;43.256;26.960;2023-02-28T06:31:27;100821.17;;;4.78;100.00
11413;BME280;5762;43.256;26.960;2023-02-28T06:33:56;100811.11;;;4.85;100.00
11413;BME280;5762;43.256;26.960;2023-02-28T06:36:24;100814.38;;;4.87;100.00
11413;BME280;5762;43.256;26.960;2023-02-28T06:38:52;100816.13;;;4.93;100.00
11413;BME280;5762;43.256;26.960;2023-02-28T06:41:22;100815.14;;;4.97;100.00
11413;BME280;5762;43.256;26.960;2023-02-28T06:43:51;100820.80;;;4.98;100.00
11413;BME280;5762;43.256;26.960;2023-02-28T06:46:20;100819.92;;;4.95;100.00
11413;BME280;5762;43.256;26.960;2023-02-28T06:48:51;100827.50;;;4.98;100.00
11413;BME280;5762;43.256;26.960;2023-02-28T06:51:20;100828.78;;;5.07;100.00
11413;BME280;5762;43.256;26.960;2023-02-28T06:53:49;100824.13;;;5.28;100.00
11413;BME280;5762;43.256;26.960;2023-02-28T06:56:21;100826.58;;;5.30;100.00
11413;BME280;5762;43.256;26.960;2023-02-28T06:58:50;100827.58;;;5.26;100.00
11413;BME280;5762;43.256;26.960;2023-02-28T07:01:22;100820.80;;;5.24;100.00
11413;BME280;5762;43.256;26.960;2023-02-28T07:03:51;100817.13;;;5.27;100.00
11413;BME280;5762;43.256;26.960;2023-02-28T07:06:20;100810.47;;;5.30;100.00
11413;BME280;5762;43.256;26.960;2023-02-28T07:08:51;100806.92;;;5.27;100.00
11413;BME280;5762;43.256;26.960;2023-02-28T07:11:20;100802.70;;;5.31;100.00
11413;BME280;5762;43.256;26.960;2023-02-28T07:13:49;100804.16;;;5.36;100.00
11413;BME280;5762;43.256;26.960;2023-02-28T07:16:18;100801.73;;;5.23;100.00
11413;BME280;5762;43.256;26.960;2023-02-28T07:18:47;100799.92;;;5.26;100.00
11413;BME280;5762;43.256;26.960;2023-02-28T07:21:17;100806.66;;;5.40;100.00
11413;BME280;5762;43.256;26.960;2023-02-28T07:23:46;100810.45;;;5.42;100.00
11413;BME280;5762;43.256;26.960;2023-02-28T07:26:14;100806.95;;;5.41;100.00
11413;BME280;5762;43.256;26.960;2023-02-28T07:28:44;100811.80;;;5.42;100.00
11413;BME280;5762;43.256;26.960;2023-02-28T07:31:13;100821.53;;;5.45;100.00
11413;BME280;5762;43.256;26.960;2023-02-28T07:33:43;100807.88;;;5.47;100.00
11413;BME280;5762;43.256;26.960;2023-02-28T07:36:13;100805.53;;;5.50;100.00
11413;BME280;5762;43.256;26.960;2023-02-28T07:38:42;100803.55;;;5.46;100.00
11413;BME280;5762;43.256;26.960;2023-02-28T07:41:11;100806.87;;;5.50;100.00
11413;BME280;5762;43.256;26.960;2023-02-28T07:43:39;100803.55;;;5.60;100.00
11413;BME280;5762;43.256;26.960;2023-02-28T07:46:08;100804.23;;;5.67;100.00
11413;BME280;5762;43.256;26.960;2023-02-28T07:48:37;100792.73;;;5.83;100.00
11413;BME280;5762;43.256;26.960;2023-02-28T07:51:05;100797.52;;;5.81;100.00
11413;BME280;5762;43.256;26.960;2023-02-28T07:53:34;100793.02;;;5.84;100.00
11413;BME280;5762;43.256;26.960;2023-02-28T07:56:02;100802.66;;;5.83;100.00
11413;BME280;5762;43.256;26.960;2023-02-28T07:58:30;100801.02;;;5.82;100.00
11413;BME280;5762;43.256;26.960;2023-02-28T08:01:06;100797.28;;;5.83;100.00
11413;BME280;5762;43.256;26.960;2023-02-28T08:03:35;100798.96;;;6.00;100.00
11413;BME280;5762;43.256;26.960;2023-02-28T08:06:04;100799.81;;;6.18;100.00
11413;BME280;5762;43.256;26.960;2023-02-28T08:08:33;100795.94;;;6.11;100.00
11413;BME280;5762;43.256;26.960;2023-02-28T08:11:02;100802.26;;;6.19;100.00
11413;BME280;5762;43.256;26.960;2023-02-28T08:13:31;100802.84;;;6.24;100.00
11413;BME280;5762;43.256;26.960;2023-02-28T08:16:01;100797.75;;;6.25;100.00
11413;BME280;5762;43.256;26.960;2023-02-28T08:18:29;100794.95;;;6.34;100.00
11413;BME280;5762;43.256;26.960;2023-02-28T08:20:58;100791.01;;;6.39;100.00
11413;BME280;5762;43.256;26.960;2023-02-28T08:23:27;100776.02;;;6.43;100.00
11413;BME280;5762;43.256;26.960;2023-02-28T08:25:56;100779.44;;;6.38;100.00
11413;BME280;5762;43.256;26.960;2023-02-28T08:28:25;100783.11;;;6.49;100.00
11413;BME280;5762;43.256;26.960;2023-02-28T08:30:54;100783.77;;;6.56;100.00
11413;BME280;5762;43.256;26.960;2023-02-28T08:33:23;100781.89;;;6.59;100.00
11413;BME280;5762;43.256;26.960;2023-02-28T08:35:55;100785.69;;;6.61;100.00
11413;BME280;5762;43.256;26.960;2023-02-28T08:38:23;100792.64;;;6.57;100.00
11413;BME280;5762;43.256;26.960;2023-02-28T08:41:04;100783.44;;;6.53;100.00
11413;BME280;5762;43.256;26.960;2023-02-28T08:43:28;100783.19;;;6.54;100.00
11413;BME280;5762;43.256;26.960;2023-02-28T08:45:56;100788.16;;;6.46;100.00
11413;BME280;5762;43.256;26.960;2023-02-28T08:48:26;100791.17;;;6.49;100.00
11413;BME280;5762;43.256;26.960;2023-02-28T08:50:57;100794.64;;;6.47;100.00
11413;BME280;5762;43.256;26.960;2023-02-28T08:53:26;100794.15;;;6.50;100.00
11413;BME280;5762;43.256;26.960;2023-02-28T08:55:58;100793.87;;;6.49;100.00
11413;BME280;5762;43.256;26.960;2023-02-28T08:58:29;100787.92;;;6.47;100.00
11413;BME280;5762;43.256;26.960;2023-02-28T09:00:57;100787.27;;;6.40;100.00
11413;BME280;5762;43.256;26.960;2023-02-28T09:03:26;100795.05;;;6.39;100.00
11413;BME280;5762;43.256;26.960;2023-02-28T09:06:00;100796.25;;;6.31;100.00
11413;BME280;5762;43.256;26.960;2023-02-28T09:08:24;100799.08;;;6.39;100.00
11413;BME280;5762;43.256;26.960;2023-02-28T09:10:53;100800.75;;;6.43;100.00
11413;BME280;5762;43.256;26.960;2023-02-28T09:13:26;100798.63;;;6.45;100.00
11413;BME280;5762;43.256;26.960;2023-02-28T09:15:55;100795.33;;;6.40;100.00
11413;BME280;5762;43.256;26.960;2023-02-28T09:18:26;100792.59;;;6.37;100.00
11413;BME280;5762;43.256;26.960;2023-02-28T09:20:54;100791.58;;;6.41;100.00
11413;BME280;5762;43.256;26.960;2023-02-28T09:23:24;100798.04;;;6.26;100.00
11413;BME280;5762;43.256;26.960;2023-02-28T09:25:53;100793.48;;;6.26;100.00
11413;BME280;5762;43.256;26.960;2023-02-28T09:28:22;100793.20;;;6.25;100.00
11413;BME280;5762;43.256;26.960;2023-02-28T09:30:52;100795.69;;;6.13;100.00
11413;BME280;5762;43.256;26.960;2023-02-28T09:33:20;100804.90;;;6.17;100.00
11413;BME280;5762;43.256;26.960;2023-02-28T09:35:50;100804.81;;;6.12;100.00
11413;BME280;5762;43.256;26.960;2023-02-28T09:38:18;100817.77;;;6.15;100.00
11413;BME280;5762;43.256;26.960;2023-02-28T09:40:49;100819.68;;;6.17;100.00
11413;BME280;5762;43.256;26.960;2023-02-28T09:43:16;100817.91;;;6.22;100.00
11413;BME280;5762;43.256;26.960;2023-02-28T09:45:51;100815.45;;;6.21;100.00
11413;BME280;5762;43.256;26.960;2023-02-28T09:48:16;100819.53;;;6.23;100.00
11413;BME280;5762;43.256;26.960;2023-02-28T09:50:46;100821.13;;;6.22;100.00
11413;BME280;5762;43.256;26.960;2023-02-28T09:53:18;100824.01;;;6.03;100.00
11413;BME280;5762;43.256;26.960;2023-02-28T09:55:46;100819.93;;;6.01;100.00
11413;BME280;5762;43.256;26.960;2023-02-28T09:58:20;100817.09;;;6.08;100.00
11413;BME280;5762;43.256;26.960;2023-02-28T10:00:43;100817.96;;;6.11;100.00
11413;BME280;5762;43.256;26.960;2023-02-28T10:03:24;100808.36;;;6.15;100.00
11413;BME280;5762;43.256;26.960;2023-02-28T10:05:52;100810.71;;;6.11;100.00
11413;BME280;5762;43.256;26.960;2023-02-28T10:08:30;100816.95;;;6.14;100.00
11413;BME280;5762;43.256;26.960;2023-02-28T10:10:58;100815.80;;;6.10;100.00
11413;BME280;5762;43.256;26.960;2023-02-28T10:13:34;100818.92;;;6.04;100.00
11413;BME280;5762;43.256;26.960;2023-02-28T10:16:17;100817.05;;;6.05;100.00
11413;BME280;5762;43.256;26.960;2023-02-28T10:18:43;100816.86;;;6.09;100.00
11413;BME280;5762;43.256;26.960;2023-02-28T10:21:15;100806.53;;;6.18;100.00
11413;BME280;5762;43.256;26.960;2023-02-28T10:23:40;100810.08;;;6.21;100.00
11413;BME280;5762;43.256;26.960;2023-02-28T10:26:11;100808.64;;;6.16;100.00
11413;BME280;5762;43.256;26.960;2023-02-28T10:28:39;100805.34;;;6.11;100.00
11413;BME280;5762;43.256;26.960;2023-02-28T10:31:16;100806.20;;;6.14;100.00
11413;BME280;5762;43.256;26.960;2023-02-28T10:33:40;100804.66;;;6.18;100.00
11413;BME280;5762;43.256;26.960;2023-02-28T10:36:11;100807.78;;;6.13;100.00
11413;BME280;5762;43.256;26.960;2023-02-28T10:38:39;100800.11;;;6.04;100.00
11413;BME280;5762;43.256;26.960;2023-02-28T10:41:11;100794.25;;;6.08;100.00
11413;BME280;5762;43.256;26.960;2023-02-28T10:43:40;100793.48;;;6.10;100.00
11413;BME280;5762;43.256;26.960;2023-02-28T10:48:39;100785.52;;;6.15;100.00
11413;BME280;5762;43.256;26.960;2023-02-28T10:51:10;100786.56;;;6.14;100.00
11413;BME280;5762;43.256;26.960;2023-02-28T10:53:40;100779.98;;;6.21;100.00
11413;BME280;5762;43.256;26.960;2023-02-28T11:01:17;100775.48;;;6.27;100.00
11413;BME280;5762;43.256;26.960;2023-02-28T11:03:46;100759.06;;;6.26;100.00
11413;BME280;5762;43.256;26.960;2023-02-28T11:06:25;100762.37;;;6.30;100.00
11413;BME280;5762;43.256;26.960;2023-02-28T11:08:53;100760.58;;;6.36;100.00
11413;BME280;5762;43.256;26.960;2023-02-28T11:11:24;100764.41;;;6.40;100.00
11413;BME280;5762;43.256;26.960;2023-02-28T11:13:53;100762.29;;;6.42;100.00
11413;BME280;5762;43.256;26.960;2023-02-28T11:16:21;100755.28;;;6.41;100.00
11413;BME280;5762;43.256;26.960;2023-02-28T11:18:54;100750.92;;;6.37;100.00
11413;BME280;5762;43.256;26.960;2023-02-28T11:23:54;100742.35;;;6.21;100.00
11413;BME280;5762;43.256;26.960;2023-02-28T11:26:35;100744.34;;;6.12;100.00
11413;BME280;5762;43.256;26.960;2023-02-28T11:29:12;100739.73;;;6.10;100.00
11413;BME280;5762;43.256;26.960;2023-02-28T11:31:39;100728.13;;;6.07;100.00
11413;BME280;5762;43.256;26.960;2023-02-28T11:34:27;100727.75;;;6.00;100.00
11413;BME280;5762;43.256;26.960;2023-02-28T11:36:41;100723.63;;;5.95;100.00
11413;BME280;5762;43.256;26.960;2023-02-28T11:39:11;100728.19;;;5.95;100.00
11413;BME280;5762;43.256;26.960;2023-02-28T11:41:54;100725.80;;;5.96;100.00
11413;BME280;5762;43.256;26.960;2023-02-28T11:44:23;100731.50;;;5.99;100.00
11413;BME280;5762;43.256;26.960;2023-02-28T11:52:28;100649.91;;;5.41;100.00
11413;BME280;5762;43.256;26.960;2023-02-28T11:55:12;100734.58;;;5.91;100.00
11413;BME280;5762;43.256;26.960;2023-02-28T12:10:30;100744.49;;;6.05;100.00
11413;BME280;5762;43.256;26.960;2023-02-28T12:15:43;100740.79;;;6.09;100.00
11413;BME280;5762;43.256;26.960;2023-02-28T12:20:57;100737.17;;;6.17;100.00
11413;BME280;5762;43.256;26.960;2023-02-28T12:23:45;100736.78;;;6.28;100.00
11413;BME280;5762;43.256;26.960;2023-02-28T12:29:04;100743.94;;;6.20;100.00
11413;BME280;5762;43.256;26.960;2023-02-28T12:31:29;100751.52;;;6.23;100.00
11413;BME280;5762;43.256;26.960;2023-02-28T12:33:59;100746.39;;;6.24;100.00
11413;BME280;5762;43.256;26.960;2023-02-28T12:36:26;100742.80;;;6.16;100.00
11413;BME280;5762;43.256;26.960;2023-02-28T12:39:00;100747.20;;;6.22;100.00
11413;BME280;5762;43.256;26.960;2023-02-28T12:44:15;100743.30;;;6.32;100.00
11413;BME280;5762;43.256;26.960;2023-02-28T12:46:41;100732.59;;;6.34;100.00
11413;BME280;5762;43.256;26.960;2023-02-28T12:49:10;100727.25;;;6.37;100.00
11413;BME280;5762;43.256;26.960;2023-02-28T12:51:37;100732.91;;;6.38;100.00
11413;BME280;5762;43.256;26.960;2023-02-28T12:54:14;100731.20;;;6.32;100.00
11413;BME280;5762;43.256;26.960;2023-02-28T13:01:56;100723.01;;;6.22;100.00
11413;BME280;5762;43.256;26.960;2023-02-28T13:09:35;100714.95;;;6.24;100.00
11413;BME280;5762;43.256;26.960;2023-02-28T13:12:14;100718.73;;;6.23;100.00
11413;BME280;5762;43.256;26.960;2023-02-28T13:14:43;100710.30;;;6.17;100.00
11413;BME280;5762;43.256;26.960;2023-02-28T13:17:14;100716.87;;;6.26;100.00
11413;BME280;5762;43.256;26.960;2023-02-28T13:22:44;100719.55;;;6.26;100.00
11413;BME280;5762;43.256;26.960;2023-02-28T13:27:58;100721.14;;;6.25;100.00
11413;BME280;5762;43.256;26.960;2023-02-28T13:33:32;100723.38;;;6.30;100.00
11413;BME280;5762;43.256;26.960;2023-02-28T13:36:08;100716.83;;;6.24;100.00
11413;BME280;5762;43.256;26.960;2023-02-28T13:38:38;100713.80;;;6.18;100.00
11413;BME280;5762;43.256;26.960;2023-02-28T13:44:00;100702.04;;;6.24;100.00
11413;BME280;5762;43.256;26.960;2023-02-28T13:46:32;100707.41;;;6.21;100.00
11413;BME280;5762;43.256;26.960;2023-02-28T13:51:48;100703.05;;;6.18;100.00
11413;BME280;5762;43.256;26.960;2023-02-28T13:54:24;100712.17;;;6.17;100.00
11413;BME280;5762;43.256;26.960;2023-02-28T13:57:06;100708.70;;;6.19;100.00
11413;BME280;5762;43.256;26.960;2023-02-28T14:07:31;100713.80;;;6.18;100.00
11413;BME280;5762;43.256;26.960;2023-02-28T14:10:01;100714.13;;;6.21;100.00
11413;BME280;5762;43.256;26.960;2023-02-28T14:17:57;100710.22;;;6.12;100.00
11413;BME280;5762;43.256;26.960;2023-02-28T14:20:29;100708.09;;;6.14;100.00
11413;BME280;5762;43.256;26.960;2023-02-28T14:25:47;100719.99;;;6.18;100.00
11413;BME280;5762;43.256;26.960;2023-02-28T14:28:18;100709.77;;;6.18;100.00
11413;BME280;5762;43.256;26.960;2023-02-28T14:30:54;100717.83;;;6.18;100.00
11413;BME280;5762;43.256;26.960;2023-02-28T14:33:26;100712.54;;;6.23;100.00
11413;BME280;5762;43.256;26.960;2023-02-28T14:35:58;100714.66;;;6.21;100.00
11413;BME280;5762;43.256;26.960;2023-02-28T14:38:25;100714.86;;;6.17;100.00
11413;BME280;5762;43.256;26.960;2023-02-28T14:40:54;100714.66;;;6.21;100.00
11413;BME280;5762;43.256;26.960;2023-02-28T14:43:24;100715.72;;;6.20;100.00
11413;BME280;5762;43.256;26.960;2023-02-28T14:45:56;100711.20;;;6.23;100.00
11413;BME280;5762;43.256;26.960;2023-02-28T14:48:25;100714.95;;;6.24;100.00
11413;BME280;5762;43.256;26.960;2023-02-28T14:50:55;100706.84;;;6.19;100.00
11413;BME280;5762;43.256;26.960;2023-02-28T14:53:25;100707.20;;;6.09;100.00